sensor_id;sensor_type;location;lat;lon;timestamp;P1;durP1;ratioP1;P2;durP2;ratioP2
9108;SDS011;4590;51.462;6.692;2022-09-17T00:04:29;4.15;;;1.20;;
9108;SDS011;4590;51.462;6.692;2022-09-17T00:06:55;4.20;;;0.95;;
9108;SDS011;4590;51.462;6.692;2022-09-17T00:09:20;5.40;;;1.10;;
9108;SDS011;4590;51.462;6.692;2022-09-17T00:16:56;4.25;;;1.10;;
9108;SDS011;4590;51.462;6.692;2022-09-17T00:19:22;5.03;;;1.10;;
9108;SDS011;4590;51.462;6.692;2022-09-17T00:21:49;4.13;;;0.98;;
9108;SDS011;4590;51.462;6.692;2022-09-17T00:24:15;3.33;;;1.00;;
9108;SDS011;4590;51.462;6.692;2022-09-17T00:29:07;5.47;;;1.00;;
9108;SDS011;4590;51.462;6.692;2022-09-17T00:33:59;4.15;;;0.90;;
9108;SDS011;4590;51.462;6.692;2022-09-17T00:36:26;8.05;;;1.23;;
9108;SDS011;4590;51.462;6.692;2022-09-17T00:38:55;4.43;;;0.88;;
9108;SDS011;4590;51.462;6.692;2022-09-17T00:41:25;5.15;;;0.90;;
9108;SDS011;4590;51.462;6.692;2022-09-17T00:43:55;4.93;;;1.00;;
9108;SDS011;4590;51.462;6.692;2022-09-17T00:48:59;5.38;;;1.45;;
9108;SDS011;4590;51.462;6.692;2022-09-17T00:51:35;3.70;;;1.00;;
9108;SDS011;4590;51.462;6.692;2022-09-17T00:54:05;4.03;;;1.05;;
9108;SDS011;4590;51.462;6.692;2022-09-17T00:56:34;3.20;;;1.00;;
9108;SDS011;4590;51.462;6.692;2022-09-17T00:59:03;6.38;;;1.40;;
9108;SDS011;4590;51.462;6.692;2022-09-17T01:01:30;4.05;;;1.30;;
9108;SDS011;4590;51.462;6.692;2022-09-17T01:03:58;4.22;;;1.02;;
9108;SDS011;4590;51.462;6.692;2022-09-17T01:06:27;8.65;;;1.63;;
9108;SDS011;4590;51.462;6.692;2022-09-17T01:09:09;3.55;;;1.20;;
9108;SDS011;4590;51.462;6.692;2022-09-17T01:14:49;4.20;;;1.02;;
9108;SDS011;4590;51.462;6.692;2022-09-17T01:20:21;6.82;;;1.48;;
9108;SDS011;4590;51.462;6.692;2022-09-17T01:22:59;3.35;;;0.90;;
9108;SDS011;4590;51.462;6.692;2022-09-17T01:31:35;5.10;;;0.93;;
9108;SDS011;4590;51.462;6.692;2022-09-17T01:36:47;5.72;;;1.60;;
9108;SDS011;4590;51.462;6.692;2022-09-17T01:39:27;7.70;;;1.77;;
9108;SDS011;4590;51.462;6.692;2022-09-17T01:47:50;9.68;;;1.25;;
9108;SDS011;4590;51.462;6.692;2022-09-17T01:50:20;3.67;;;1.25;;
9108;SDS011;4590;51.462;6.692;2022-09-17T01:52:49;7.00;;;1.50;;
9108;SDS011;4590;51.462;6.692;2022-09-17T01:55:19;5.63;;;1.23;;
9108;SDS011;4590;51.462;6.692;2022-09-17T01:58:49;5.57;;;1.15;;
9108;SDS011;4590;51.462;6.692;2022-09-17T02:00:54;5.78;;;1.77;;
9108;SDS011;4590;51.462;6.692;2022-09-17T02:03:25;7.90;;;1.90;;
9108;SDS011;4590;51.462;6.692;2022-09-17T02:08:24;7.07;;;1.20;;
9108;SDS011;4590;51.462;6.692;2022-09-17T02:10:57;4.18;;;1.13;;
9108;SDS011;4590;51.462;6.692;2022-09-17T02:13:32;6.25;;;1.15;;
9108;SDS011;4590;51.462;6.692;2022-09-17T02:16:25;4.15;;;1.42;;
9108;SDS011;4590;51.462;6.692;2022-09-17T02:19:03;7.25;;;1.38;;
9108;SDS011;4590;51.462;6.692;2022-09-17T02:27:06;5.43;;;1.27;;
9108;SDS011;4590;51.462;6.692;2022-09-17T02:29:45;3.92;;;1.00;;
9108;SDS011;4590;51.462;6.692;2022-09-17T02:32:11;8.83;;;1.90;;
9108;SDS011;4590;51.462;6.692;2022-09-17T02:34:37;7.38;;;1.98;;
9108;SDS011;4590;51.462;6.692;2022-09-17T02:39:29;6.90;;;1.35;;
9108;SDS011;4590;51.462;6.692;2022-09-17T02:41:57;7.10;;;1.95;;
9108;SDS011;4590;51.462;6.692;2022-09-17T02:44:37;5.07;;;1.27;;
9108;SDS011;4590;51.462;6.692;2022-09-17T02:50:17;9.70;;;1.40;;
9108;SDS011;4590;51.462;6.692;2022-09-17T02:53:10;5.80;;;1.38;;
9108;SDS011;4590;51.462;6.692;2022-09-17T02:58:46;8.25;;;1.67;;
9108;SDS011;4590;51.462;6.692;2022-09-17T03:01:37;4.97;;;1.25;;
9108;SDS011;4590;51.462;6.692;2022-09-17T03:04:08;7.45;;;1.38;;
9108;SDS011;4590;51.462;6.692;2022-09-17T03:06:37;6.05;;;2.15;;
9108;SDS011;4590;51.462;6.692;2022-09-17T03:09:03;6.47;;;1.95;;
9108;SDS011;4590;51.462;6.692;2022-09-17T03:11:28;7.23;;;2.20;;
9108;SDS011;4590;51.462;6.692;2022-09-17T03:13:54;8.32;;;1.90;;
9108;SDS011;4590;51.462;6.692;2022-09-17T03:16:22;9.57;;;1.75;;
9108;SDS011;4590;51.462;6.692;2022-09-17T03:18:48;6.50;;;1.10;;
9108;SDS011;4590;51.462;6.692;2022-09-17T03:21:13;9.30;;;1.50;;
9108;SDS011;4590;51.462;6.692;2022-09-17T03:23:38;3.97;;;1.00;;
9108;SDS011;4590;51.462;6.692;2022-09-17T03:26:03;5.87;;;1.30;;
9108;SDS011;4590;51.462;6.692;2022-09-17T03:28:29;7.03;;;1.07;;
9108;SDS011;4590;51.462;6.692;2022-09-17T03:30:54;4.63;;;0.90;;
9108;SDS011;4590;51.462;6.692;2022-09-17T03:33:19;5.80;;;1.00;;
9108;SDS011;4590;51.462;6.692;2022-09-17T03:35:45;6.50;;;1.33;;
9108;SDS011;4590;51.462;6.692;2022-09-17T03:38:10;6.40;;;1.70;;
9108;SDS011;4590;51.462;6.692;2022-09-17T03:40:37;6.35;;;1.90;;
9108;SDS011;4590;51.462;6.692;2022-09-17T03:43:03;6.75;;;1.73;;
9108;SDS011;4590;51.462;6.692;2022-09-17T03:45:28;7.72;;;1.30;;
9108;SDS011;4590;51.462;6.692;2022-09-17T03:47:53;5.80;;;1.60;;
9108;SDS011;4590;51.462;6.692;2022-09-17T03:50:20;6.47;;;1.42;;
9108;SDS011;4590;51.462;6.692;2022-09-17T03:52:45;6.37;;;1.10;;
9108;SDS011;4590;51.462;6.692;2022-09-17T03:55:10;6.70;;;0.90;;
9108;SDS011;4590;51.462;6.692;2022-09-17T03:57:36;4.93;;;1.20;;
9108;SDS011;4590;51.462;6.692;2022-09-17T04:00:02;8.70;;;1.80;;
9108;SDS011;4590;51.462;6.692;2022-09-17T04:02:28;4.60;;;1.25;;
9108;SDS011;4590;51.462;6.692;2022-09-17T04:04:54;7.90;;;1.97;;
9108;SDS011;4590;51.462;6.692;2022-09-17T04:07:19;6.77;;;1.80;;
9108;SDS011;4590;51.462;6.692;2022-09-17T04:09:44;8.30;;;1.80;;
9108;SDS011;4590;51.462;6.692;2022-09-17T04:12:09;8.43;;;1.90;;
9108;SDS011;4590;51.462;6.692;2022-09-17T04:14:35;5.57;;;1.60;;
9108;SDS011;4590;51.462;6.692;2022-09-17T04:17:00;6.13;;;1.27;;
9108;SDS011;4590;51.462;6.692;2022-09-17T04:19:25;5.00;;;1.13;;
9108;SDS011;4590;51.462;6.692;2022-09-17T04:21:50;5.87;;;1.10;;
9108;SDS011;4590;51.462;6.692;2022-09-17T04:24:16;7.50;;;1.73;;
9108;SDS011;4590;51.462;6.692;2022-09-17T04:26:42;5.97;;;1.30;;
9108;SDS011;4590;51.462;6.692;2022-09-17T04:29:07;6.63;;;1.60;;
9108;SDS011;4590;51.462;6.692;2022-09-17T04:33:59;8.15;;;1.80;;
9108;SDS011;4590;51.462;6.692;2022-09-17T04:36:24;5.93;;;2.03;;
9108;SDS011;4590;51.462;6.692;2022-09-17T04:38:49;5.67;;;2.03;;
9108;SDS011;4590;51.462;6.692;2022-09-17T04:41:15;10.47;;;2.20;;
9108;SDS011;4590;51.462;6.692;2022-09-17T04:43:40;8.60;;;1.67;;
9108;SDS011;4590;51.462;6.692;2022-09-17T04:46:05;7.33;;;1.43;;
9108;SDS011;4590;51.462;6.692;2022-09-17T04:48:30;6.40;;;1.20;;
9108;SDS011;4590;51.462;6.692;2022-09-17T04:50:56;7.73;;;1.40;;
9108;SDS011;4590;51.462;6.692;2022-09-17T04:53:21;7.37;;;1.33;;
9108;SDS011;4590;51.462;6.692;2022-09-17T04:55:46;5.73;;;1.60;;
9108;SDS011;4590;51.462;6.692;2022-09-17T04:58:12;7.53;;;1.47;;
9108;SDS011;4590;51.462;6.692;2022-09-17T05:00:37;6.35;;;1.90;;
9108;SDS011;4590;51.462;6.692;2022-09-17T05:03:03;5.73;;;1.23;;
9108;SDS011;4590;51.462;6.692;2022-09-17T05:05:28;7.87;;;1.10;;
9108;SDS011;4590;51.462;6.692;2022-09-17T05:07:53;5.57;;;1.10;;
9108;SDS011;4590;51.462;6.692;2022-09-17T05:10:20;5.10;;;1.47;;
9108;SDS011;4590;51.462;6.692;2022-09-17T05:12:53;7.70;;;1.40;;
9108;SDS011;4590;51.462;6.692;2022-09-17T05:15:20;6.70;;;1.17;;
9108;SDS011;4590;51.462;6.692;2022-09-17T05:20:11;4.65;;;1.10;;
9108;SDS011;4590;51.462;6.692;2022-09-17T05:25:06;5.38;;;1.85;;
9108;SDS011;4590;51.462;6.692;2022-09-17T05:27:32;6.70;;;1.33;;
9108;SDS011;4590;51.462;6.692;2022-09-17T05:29:57;4.40;;;0.97;;
9108;SDS011;4590;51.462;6.692;2022-09-17T05:32:22;4.33;;;0.83;;
9108;SDS011;4590;51.462;6.692;2022-09-17T05:34:48;8.10;;;1.57;;
9108;SDS011;4590;51.462;6.692;2022-09-17T05:37:14;6.18;;;1.30;;
9108;SDS011;4590;51.462;6.692;2022-09-17T05:39:39;8.33;;;1.37;;
9108;SDS011;4590;51.462;6.692;2022-09-17T05:42:04;5.80;;;1.10;;
9108;SDS011;4590;51.462;6.692;2022-09-17T05:44:30;4.00;;;0.90;;
9108;SDS011;4590;51.462;6.692;2022-09-17T05:46:55;3.67;;;1.08;;
9108;SDS011;4590;51.462;6.692;2022-09-17T05:49:21;4.00;;;0.90;;
9108;SDS011;4590;51.462;6.692;2022-09-17T05:51:46;8.47;;;1.30;;
9108;SDS011;4590;51.462;6.692;2022-09-17T05:54:12;6.38;;;1.23;;
9108;SDS011;4590;51.462;6.692;2022-09-17T05:56:37;6.97;;;1.37;;
9108;SDS011;4590;51.462;6.692;2022-09-17T05:59:02;6.50;;;1.43;;
9108;SDS011;4590;51.462;6.692;2022-09-17T06:01:28;3.87;;;1.20;;
9108;SDS011;4590;51.462;6.692;2022-09-17T06:03:53;6.43;;;1.15;;
9108;SDS011;4590;51.462;6.692;2022-09-17T06:06:19;5.97;;;1.43;;
9108;SDS011;4590;51.462;6.692;2022-09-17T06:08:44;3.77;;;0.77;;
9108;SDS011;4590;51.462;6.692;2022-09-17T06:11:10;6.90;;;1.30;;
9108;SDS011;4590;51.462;6.692;2022-09-17T06:13:35;4.27;;;1.07;;
9108;SDS011;4590;51.462;6.692;2022-09-17T06:16:00;8.07;;;1.00;;
9108;SDS011;4590;51.462;6.692;2022-09-17T06:18:28;5.88;;;1.15;;
9108;SDS011;4590;51.462;6.692;2022-09-17T06:23:26;7.03;;;1.13;;
9108;SDS011;4590;51.462;6.692;2022-09-17T06:28:21;4.45;;;1.48;;
9108;SDS011;4590;51.462;6.692;2022-09-17T06:30:47;4.70;;;1.07;;
9108;SDS011;4590;51.462;6.692;2022-09-17T06:33:12;3.90;;;0.85;;
9108;SDS011;4590;51.462;6.692;2022-09-17T06:35:38;3.17;;;0.82;;
9108;SDS011;4590;51.462;6.692;2022-09-17T06:38:03;8.03;;;1.60;;
9108;SDS011;4590;51.462;6.692;2022-09-17T06:40:29;4.40;;;1.10;;
9108;SDS011;4590;51.462;6.692;2022-09-17T06:42:58;6.68;;;1.77;;
9108;SDS011;4590;51.462;6.692;2022-09-17T06:45:24;7.93;;;1.48;;
9108;SDS011;4590;51.462;6.692;2022-09-17T06:47:50;7.50;;;1.00;;
9108;SDS011;4590;51.462;6.692;2022-09-17T06:50:15;6.47;;;1.27;;
9108;SDS011;4590;51.462;6.692;2022-09-17T06:52:50;5.70;;;1.27;;
9108;SDS011;4590;51.462;6.692;2022-09-17T06:55:17;4.43;;;1.27;;
9108;SDS011;4590;51.462;6.692;2022-09-17T06:57:42;5.88;;;1.20;;
9108;SDS011;4590;51.462;6.692;2022-09-17T07:00:08;5.87;;;1.77;;
9108;SDS011;4590;51.462;6.692;2022-09-17T07:02:34;5.18;;;1.05;;
9108;SDS011;4590;51.462;6.692;2022-09-17T07:05:00;6.00;;;1.40;;
9108;SDS011;4590;51.462;6.692;2022-09-17T07:07:26;7.53;;;1.55;;
9108;SDS011;4590;51.462;6.692;2022-09-17T07:09:52;5.95;;;1.67;;
9108;SDS011;4590;51.462;6.692;2022-09-17T07:12:18;7.00;;;1.10;;
9108;SDS011;4590;51.462;6.692;2022-09-17T07:14:44;4.35;;;1.05;;
9108;SDS011;4590;51.462;6.692;2022-09-17T07:17:09;6.07;;;1.20;;
9108;SDS011;4590;51.462;6.692;2022-09-17T07:19:35;3.33;;;1.10;;
9108;SDS011;4590;51.462;6.692;2022-09-17T07:22:01;5.38;;;1.00;;
9108;SDS011;4590;51.462;6.692;2022-09-17T07:24:26;6.97;;;1.20;;
9108;SDS011;4590;51.462;6.692;2022-09-17T07:26:51;4.57;;;1.20;;
9108;SDS011;4590;51.462;6.692;2022-09-17T07:29:17;6.40;;;1.70;;
9108;SDS011;4590;51.462;6.692;2022-09-17T07:31:42;4.32;;;1.08;;
9108;SDS011;4590;51.462;6.692;2022-09-17T07:34:08;6.00;;;1.07;;
9108;SDS011;4590;51.462;6.692;2022-09-17T07:36:34;5.63;;;0.93;;
9108;SDS011;4590;51.462;6.692;2022-09-17T07:38:59;4.97;;;1.07;;
9108;SDS011;4590;51.462;6.692;2022-09-17T07:41:24;4.93;;;0.83;;
9108;SDS011;4590;51.462;6.692;2022-09-17T07:43:51;4.70;;;1.23;;
9108;SDS011;4590;51.462;6.692;2022-09-17T07:46:17;6.07;;;1.10;;
9108;SDS011;4590;51.462;6.692;2022-09-17T07:48:43;5.25;;;1.00;;
9108;SDS011;4590;51.462;6.692;2022-09-17T07:51:16;6.70;;;1.42;;
9108;SDS011;4590;51.462;6.692;2022-09-17T07:53:43;8.23;;;1.42;;
9108;SDS011;4590;51.462;6.692;2022-09-17T07:56:08;4.18;;;0.90;;
9108;SDS011;4590;51.462;6.692;2022-09-17T07:58:34;4.03;;;1.03;;
9108;SDS011;4590;51.462;6.692;2022-09-17T08:01:04;5.32;;;1.63;;
9108;SDS011;4590;51.462;6.692;2022-09-17T08:03:37;5.78;;;1.85;;
9108;SDS011;4590;51.462;6.692;2022-09-17T08:06:13;4.38;;;1.00;;
9108;SDS011;4590;51.462;6.692;2022-09-17T08:08:40;6.00;;;0.95;;
9108;SDS011;4590;51.462;6.692;2022-09-17T08:11:13;3.95;;;1.05;;
9108;SDS011;4590;51.462;6.692;2022-09-17T08:13:40;5.38;;;0.93;;
9108;SDS011;4590;51.462;6.692;2022-09-17T08:16:07;3.90;;;0.98;;
9108;SDS011;4590;51.462;6.692;2022-09-17T08:18:34;5.93;;;1.13;;
9108;SDS011;4590;51.462;6.692;2022-09-17T08:21:00;3.05;;;1.00;;
9108;SDS011;4590;51.462;6.692;2022-09-17T08:23:26;4.13;;;0.98;;
9108;SDS011;4590;51.462;6.692;2022-09-17T08:25:56;2.38;;;0.70;;
9108;SDS011;4590;51.462;6.692;2022-09-17T08:28:23;2.45;;;0.60;;
9108;SDS011;4590;51.462;6.692;2022-09-17T08:30:50;3.03;;;0.98;;
9108;SDS011;4590;51.462;6.692;2022-09-17T08:33:16;6.03;;;0.73;;
9108;SDS011;4590;51.462;6.692;2022-09-17T08:35:49;4.65;;;0.82;;
9108;SDS011;4590;51.462;6.692;2022-09-17T08:38:15;2.25;;;0.70;;
9108;SDS011;4590;51.462;6.692;2022-09-17T08:40:52;3.50;;;0.70;;
9108;SDS011;4590;51.462;6.692;2022-09-17T08:43:26;2.45;;;0.60;;
9108;SDS011;4590;51.462;6.692;2022-09-17T08:45:55;3.45;;;0.80;;
9108;SDS011;4590;51.462;6.692;2022-09-17T08:48:24;3.22;;;0.70;;
9108;SDS011;4590;51.462;6.692;2022-09-17T08:50:54;4.90;;;0.70;;
9108;SDS011;4590;51.462;6.692;2022-09-17T08:53:22;3.17;;;1.10;;
9108;SDS011;4590;51.462;6.692;2022-09-17T08:56:15;3.63;;;0.50;;
9108;SDS011;4590;51.462;6.692;2022-09-17T09:01:38;2.95;;;0.63;;
9108;SDS011;4590;51.462;6.692;2022-09-17T09:06:54;8.23;;;0.68;;
9108;SDS011;4590;51.462;6.692;2022-09-17T09:09:40;4.85;;;0.75;;
9108;SDS011;4590;51.462;6.692;2022-09-17T09:12:16;4.82;;;0.77;;
9108;SDS011;4590;51.462;6.692;2022-09-17T09:14:50;3.22;;;0.80;;
9108;SDS011;4590;51.462;6.692;2022-09-17T09:17:17;4.20;;;0.77;;
9108;SDS011;4590;51.462;6.692;2022-09-17T09:19:46;2.40;;;0.65;;
9108;SDS011;4590;51.462;6.692;2022-09-17T09:27:44;5.47;;;0.60;;
9108;SDS011;4590;51.462;6.692;2022-09-17T09:30:16;3.70;;;0.65;;
9108;SDS011;4590;51.462;6.692;2022-09-17T09:32:54;3.33;;;0.52;;
9108;SDS011;4590;51.462;6.692;2022-09-17T09:35:33;3.63;;;0.45;;
9108;SDS011;4590;51.462;6.692;2022-09-17T09:38:05;2.65;;;0.68;;
9108;SDS011;4590;51.462;6.692;2022-09-17T09:40:39;1.53;;;0.50;;
9108;SDS011;4590;51.462;6.692;2022-09-17T09:43:10;3.30;;;0.47;;
9108;SDS011;4590;51.462;6.692;2022-09-17T09:45:48;2.75;;;0.63;;
9108;SDS011;4590;51.462;6.692;2022-09-17T09:48:37;3.80;;;0.50;;
9108;SDS011;4590;51.462;6.692;2022-09-17T09:51:27;3.20;;;0.52;;
9108;SDS011;4590;51.462;6.692;2022-09-17T09:57:12;3.40;;;0.50;;
9108;SDS011;4590;51.462;6.692;2022-09-17T09:59:39;2.38;;;0.45;;
9108;SDS011;4590;51.462;6.692;2022-09-17T10:02:05;3.75;;;0.60;;
9108;SDS011;4590;51.462;6.692;2022-09-17T10:04:31;2.45;;;0.63;;
9108;SDS011;4590;51.462;6.692;2022-09-17T10:07:03;3.30;;;0.60;;
9108;SDS011;4590;51.462;6.692;2022-09-17T10:09:31;1.83;;;0.50;;
9108;SDS011;4590;51.462;6.692;2022-09-17T10:12:03;2.65;;;0.60;;
9108;SDS011;4590;51.462;6.692;2022-09-17T10:14:40;3.78;;;0.60;;
9108;SDS011;4590;51.462;6.692;2022-09-17T10:17:23;3.75;;;0.75;;
9108;SDS011;4590;51.462;6.692;2022-09-17T10:22:32;3.75;;;0.70;;
9108;SDS011;4590;51.462;6.692;2022-09-17T10:24:59;3.92;;;1.20;;
9108;SDS011;4590;51.462;6.692;2022-09-17T10:27:26;3.30;;;0.70;;
9108;SDS011;4590;51.462;6.692;2022-09-17T10:30:00;2.10;;;0.55;;
9108;SDS011;4590;51.462;6.692;2022-09-17T10:35:38;3.33;;;0.70;;
9108;SDS011;4590;51.462;6.692;2022-09-17T10:38:03;3.15;;;0.60;;
9108;SDS011;4590;51.462;6.692;2022-09-17T10:40:29;3.53;;;0.77;;
9108;SDS011;4590;51.462;6.692;2022-09-17T10:45:41;2.30;;;0.60;;
9108;SDS011;4590;51.462;6.692;2022-09-17T10:48:15;3.35;;;0.70;;
9108;SDS011;4590;51.462;6.692;2022-09-17T10:50:47;2.35;;;0.55;;
9108;SDS011;4590;51.462;6.692;2022-09-17T10:53:14;2.40;;;0.73;;
9108;SDS011;4590;51.462;6.692;2022-09-17T10:55:53;2.17;;;0.60;;
9108;SDS011;4590;51.462;6.692;2022-09-17T11:09:28;2.53;;;0.75;;
9108;SDS011;4590;51.462;6.692;2022-09-17T11:17:34;2.33;;;0.60;;
9108;SDS011;4590;51.462;6.692;2022-09-17T11:26:17;1.15;;;0.20;;
9108;SDS011;4590;51.462;6.692;2022-09-17T11:31:58;0.90;;;0.25;;
9108;SDS011;4590;51.462;6.692;2022-09-17T11:34:41;1.20;;;0.10;;
9108;SDS011;4590;51.462;6.692;2022-09-17T11:37:21;0.98;;;0.20;;
9108;SDS011;4590;51.462;6.692;2022-09-17T11:40:02;0.93;;;0.30;;
9108;SDS011;4590;51.462;6.692;2022-09-17T11:42:42;1.70;;;0.47;;
9108;SDS011;4590;51.462;6.692;2022-09-17T11:45:13;1.08;;;0.17;;
9108;SDS011;4590;51.462;6.692;2022-09-17T11:48:21;1.50;;;0.30;;
9108;SDS011;4590;51.462;6.692;2022-09-17T11:50:52;0.57;;;0.10;;
9108;SDS011;4590;51.462;6.692;2022-09-17T11:53:30;1.15;;;0.20;;
9108;SDS011;4590;51.462;6.692;2022-09-17T11:56:01;1.48;;;0.32;;
9108;SDS011;4590;51.462;6.692;2022-09-17T11:58:43;0.75;;;0.30;;
9108;SDS011;4590;51.462;6.692;2022-09-17T12:09:47;1.50;;;0.45;;
9108;SDS011;4590;51.462;6.692;2022-09-17T12:12:18;2.47;;;0.70;;
9108;SDS011;4590;51.462;6.692;2022-09-17T12:14:56;1.00;;;0.30;;
9108;SDS011;4590;51.462;6.692;2022-09-17T12:17:29;0.63;;;0.40;;
9108;SDS011;4590;51.462;6.692;2022-09-17T12:20:04;1.63;;;0.38;;
9108;SDS011;4590;51.462;6.692;2022-09-17T12:22:34;1.83;;;1.10;;
9108;SDS011;4590;51.462;6.692;2022-09-17T12:25:03;1.88;;;0.30;;
9108;SDS011;4590;51.462;6.692;2022-09-17T12:30:18;0.82;;;0.20;;
9108;SDS011;4590;51.462;6.692;2022-09-17T12:41:26;0.55;;;0.20;;
9108;SDS011;4590;51.462;6.692;2022-09-17T12:44:24;2.42;;;0.60;;
9108;SDS011;4590;51.462;6.692;2022-09-17T12:47:15;2.08;;;0.43;;
9108;SDS011;4590;51.462;6.692;2022-09-17T13:00:58;3.92;;;0.82;;
9108;SDS011;4590;51.462;6.692;2022-09-17T13:03:29;2.78;;;0.63;;
9108;SDS011;4590;51.462;6.692;2022-09-17T13:16:24;1.88;;;0.45;;
9108;SDS011;4590;51.462;6.692;2022-09-17T13:21:51;2.35;;;0.45;;
9108;SDS011;4590;51.462;6.692;2022-09-17T13:24:21;3.05;;;0.73;;
9108;SDS011;4590;51.462;6.692;2022-09-17T13:26:49;2.17;;;0.35;;
9108;SDS011;4590;51.462;6.692;2022-09-17T13:32:07;4.03;;;0.60;;
9108;SDS011;4590;51.462;6.692;2022-09-17T13:34:32;4.10;;;0.53;;
9108;SDS011;4590;51.462;6.692;2022-09-17T13:37:00;2.42;;;0.55;;
9108;SDS011;4590;51.462;6.692;2022-09-17T13:39:43;1.48;;;0.30;;
9108;SDS011;4590;51.462;6.692;2022-09-17T13:42:21;2.08;;;0.50;;
9108;SDS011;4590;51.462;6.692;2022-09-17T13:47:29;0.82;;;0.28;;
9108;SDS011;4590;51.462;6.692;2022-09-17T13:49:57;4.43;;;0.45;;
9108;SDS011;4590;51.462;6.692;2022-09-17T13:52:43;1.50;;;0.40;;
9108;SDS011;4590;51.462;6.692;2022-09-17T13:55:30;1.15;;;0.40;;
9108;SDS011;4590;51.462;6.692;2022-09-17T13:57:59;1.38;;;0.40;;
9108;SDS011;4590;51.462;6.692;2022-09-17T14:19:01;2.65;;;0.50;;
9108;SDS011;4590;51.462;6.692;2022-09-17T14:21:30;2.95;;;0.70;;
9108;SDS011;4590;51.462;6.692;2022-09-17T14:23:58;2.08;;;0.55;;
9108;SDS011;4590;51.462;6.692;2022-09-17T14:31:44;3.40;;;0.80;;
9108;SDS011;4590;51.462;6.692;2022-09-17T14:34:16;2.63;;;0.98;;
9108;SDS011;4590;51.462;6.692;2022-09-17T14:36:45;2.58;;;0.70;;
9108;SDS011;4590;51.462;6.692;2022-09-17T14:39:19;3.17;;;0.73;;
9108;SDS011;4590;51.462;6.692;2022-09-17T14:41:47;4.60;;;1.25;;
9108;SDS011;4590;51.462;6.692;2022-09-17T14:44:21;2.38;;;0.70;;
9108;SDS011;4590;51.462;6.692;2022-09-17T14:46:58;3.87;;;0.60;;
9108;SDS011;4590;51.462;6.692;2022-09-17T14:49:36;4.25;;;0.60;;
9108;SDS011;4590;51.462;6.692;2022-09-17T14:52:18;2.38;;;0.57;;
9108;SDS011;4590;51.462;6.692;2022-09-17T14:57:44;3.05;;;0.60;;
9108;SDS011;4590;51.462;6.692;2022-09-17T15:00:16;2.97;;;1.02;;
9108;SDS011;4590;51.462;6.692;2022-09-17T15:02:49;1.80;;;0.50;;
9108;SDS011;4590;51.462;6.692;2022-09-17T15:13:26;2.72;;;0.70;;
9108;SDS011;4590;51.462;6.692;2022-09-17T15:18:47;3.70;;;0.60;;
9108;SDS011;4590;51.462;6.692;2022-09-17T15:21:59;2.25;;;0.60;;
9108;SDS011;4590;51.462;6.692;2022-09-17T15:26:55;3.17;;;0.70;;
9108;SDS011;4590;51.462;6.692;2022-09-17T15:29:24;1.67;;;0.60;;
9108;SDS011;4590;51.462;6.692;2022-09-17T15:31:53;3.97;;;0.52;;
9108;SDS011;4590;51.462;6.692;2022-09-17T15:34:18;2.45;;;0.82;;
9108;SDS011;4590;51.462;6.692;2022-09-17T15:37:03;2.13;;;0.43;;
9108;SDS011;4590;51.462;6.692;2022-09-17T15:39:50;2.55;;;0.50;;
9108;SDS011;4590;51.462;6.692;2022-09-17T15:42:19;2.25;;;0.85;;
9108;SDS011;4590;51.462;6.692;2022-09-17T15:44:47;2.22;;;0.80;;
9108;SDS011;4590;51.462;6.692;2022-09-17T15:50:14;4.32;;;0.75;;
9108;SDS011;4590;51.462;6.692;2022-09-17T15:52:43;1.83;;;0.40;;
9108;SDS011;4590;51.462;6.692;2022-09-17T15:58:18;3.42;;;0.70;;
9108;SDS011;4590;51.462;6.692;2022-09-17T16:00:48;3.10;;;0.60;;
9108;SDS011;4590;51.462;6.692;2022-09-17T16:08:43;1.85;;;0.30;;
9108;SDS011;4590;51.462;6.692;2022-09-17T16:11:11;1.27;;;0.35;;
9108;SDS011;4590;51.462;6.692;2022-09-17T16:13:37;1.95;;;0.38;;
9108;SDS011;4590;51.462;6.692;2022-09-17T16:16:02;0.97;;;0.40;;
9108;SDS011;4590;51.462;6.692;2022-09-17T16:18:28;2.85;;;0.50;;
9108;SDS011;4590;51.462;6.692;2022-09-17T16:20:53;2.20;;;0.40;;
9108;SDS011;4590;51.462;6.692;2022-09-17T16:23:18;2.40;;;0.53;;
9108;SDS011;4590;51.462;6.692;2022-09-17T16:25:44;2.43;;;0.40;;
9108;SDS011;4590;51.462;6.692;2022-09-17T16:28:10;1.10;;;0.50;;
9108;SDS011;4590;51.462;6.692;2022-09-17T16:30:39;4.43;;;0.50;;
9108;SDS011;4590;51.462;6.692;2022-09-17T16:33:09;2.22;;;0.57;;
9108;SDS011;4590;51.462;6.692;2022-09-17T16:35:36;3.47;;;0.73;;
9108;SDS011;4590;51.462;6.692;2022-09-17T16:38:02;4.07;;;0.52;;
9108;SDS011;4590;51.462;6.692;2022-09-17T16:40:28;5.07;;;0.75;;
9108;SDS011;4590;51.462;6.692;2022-09-17T16:42:55;5.15;;;0.90;;
9108;SDS011;4590;51.462;6.692;2022-09-17T16:45:24;3.45;;;0.70;;
9108;SDS011;4590;51.462;6.692;2022-09-17T16:47:49;4.87;;;0.90;;
9108;SDS011;4590;51.462;6.692;2022-09-17T16:50:15;4.87;;;1.10;;
9108;SDS011;4590;51.462;6.692;2022-09-17T16:52:41;3.33;;;0.80;;
9108;SDS011;4590;51.462;6.692;2022-09-17T16:55:07;2.47;;;0.68;;
9108;SDS011;4590;51.462;6.692;2022-09-17T16:57:33;4.80;;;0.80;;
9108;SDS011;4590;51.462;6.692;2022-09-17T16:59:59;3.67;;;0.70;;
9108;SDS011;4590;51.462;6.692;2022-09-17T17:02:24;5.60;;;1.25;;
9108;SDS011;4590;51.462;6.692;2022-09-17T17:04:50;4.93;;;0.85;;
9108;SDS011;4590;51.462;6.692;2022-09-17T17:07:15;3.60;;;0.80;;
9108;SDS011;4590;51.462;6.692;2022-09-17T17:09:41;2.83;;;0.60;;
9108;SDS011;4590;51.462;6.692;2022-09-17T17:12:06;3.03;;;0.60;;
9108;SDS011;4590;51.462;6.692;2022-09-17T17:14:32;3.35;;;0.77;;
9108;SDS011;4590;51.462;6.692;2022-09-17T17:16:57;4.63;;;0.70;;
9108;SDS011;4590;51.462;6.692;2022-09-17T17:19:22;3.23;;;0.93;;
9108;SDS011;4590;51.462;6.692;2022-09-17T17:24:14;10.43;;;1.77;;
9108;SDS011;4590;51.462;6.692;2022-09-17T17:26:40;4.27;;;0.73;;
9108;SDS011;4590;51.462;6.692;2022-09-17T17:29:05;5.90;;;0.97;;
9108;SDS011;4590;51.462;6.692;2022-09-17T17:31:31;4.82;;;0.82;;
9108;SDS011;4590;51.462;6.692;2022-09-17T17:33:57;4.73;;;0.80;;
9108;SDS011;4590;51.462;6.692;2022-09-17T17:36:22;5.20;;;0.93;;
9108;SDS011;4590;51.462;6.692;2022-09-17T17:38:47;4.53;;;0.70;;
9108;SDS011;4590;51.462;6.692;2022-09-17T17:41:13;3.30;;;0.80;;
9108;SDS011;4590;51.462;6.692;2022-09-17T17:46:08;7.72;;;1.17;;
9108;SDS011;4590;51.462;6.692;2022-09-17T17:48:35;5.97;;;1.00;;
9108;SDS011;4590;51.462;6.692;2022-09-17T17:51:04;6.90;;;1.75;;
9108;SDS011;4590;51.462;6.692;2022-09-17T17:53:31;6.38;;;1.02;;
9108;SDS011;4590;51.462;6.692;2022-09-17T17:55:58;7.32;;;0.95;;
9108;SDS011;4590;51.462;6.692;2022-09-17T17:58:25;4.93;;;0.90;;
9108;SDS011;4590;51.462;6.692;2022-09-17T18:00:51;5.38;;;1.33;;
9108;SDS011;4590;51.462;6.692;2022-09-17T18:03:16;6.80;;;1.83;;
9108;SDS011;4590;51.462;6.692;2022-09-17T18:05:41;3.97;;;0.80;;
9108;SDS011;4590;51.462;6.692;2022-09-17T18:08:07;5.43;;;1.10;;
9108;SDS011;4590;51.462;6.692;2022-09-17T18:10:32;4.57;;;1.17;;
9108;SDS011;4590;51.462;6.692;2022-09-17T18:12:58;5.22;;;1.00;;
9108;SDS011;4590;51.462;6.692;2022-09-17T18:15:26;4.85;;;1.10;;
9108;SDS011;4590;51.462;6.692;2022-09-17T18:17:51;3.53;;;1.10;;
9108;SDS011;4590;51.462;6.692;2022-09-17T18:20:17;5.45;;;1.27;;
9108;SDS011;4590;51.462;6.692;2022-09-17T18:22:43;3.08;;;1.13;;
9108;SDS011;4590;51.462;6.692;2022-09-17T18:25:09;8.18;;;1.73;;
9108;SDS011;4590;51.462;6.692;2022-09-17T18:27:34;3.40;;;0.80;;
9108;SDS011;4590;51.462;6.692;2022-09-17T18:29:59;6.20;;;1.40;;
9108;SDS011;4590;51.462;6.692;2022-09-17T18:32:24;4.97;;;1.20;;
9108;SDS011;4590;51.462;6.692;2022-09-17T18:34:50;6.33;;;1.17;;
9108;SDS011;4590;51.462;6.692;2022-09-17T18:37:15;4.40;;;0.87;;
9108;SDS011;4590;51.462;6.692;2022-09-17T18:39:40;3.63;;;0.80;;
9108;SDS011;4590;51.462;6.692;2022-09-17T18:42:08;3.03;;;0.95;;
9108;SDS011;4590;51.462;6.692;2022-09-17T18:44:33;3.87;;;1.00;;
9108;SDS011;4590;51.462;6.692;2022-09-17T18:46:58;5.97;;;1.20;;
9108;SDS011;4590;51.462;6.692;2022-09-17T18:49:24;5.37;;;1.30;;
9108;SDS011;4590;51.462;6.692;2022-09-17T18:51:49;4.07;;;1.20;;
9108;SDS011;4590;51.462;6.692;2022-09-17T18:54:14;4.27;;;1.03;;
9108;SDS011;4590;51.462;6.692;2022-09-17T18:56:40;5.47;;;1.10;;
9108;SDS011;4590;51.462;6.692;2022-09-17T18:59:05;5.57;;;1.33;;
9108;SDS011;4590;51.462;6.692;2022-09-17T19:01:31;4.22;;;0.93;;
9108;SDS011;4590;51.462;6.692;2022-09-17T19:03:57;6.33;;;1.10;;
9108;SDS011;4590;51.462;6.692;2022-09-17T19:08:48;3.90;;;0.90;;
9108;SDS011;4590;51.462;6.692;2022-09-17T19:11:17;4.45;;;1.08;;